Stickney, South Dakota
Current Conditions -  °F | °C
As of 10:06 AM on Thursday 18 Dec 2014 (Local Time) from KMHE Reporting Station
NA  
Wind Chill: 12°   Ceiling: NA
Heat Index: 23°   Visibility: 9mi
Dew Point: 19°   Wind: 12mph
Humidity: 85%   Direction: 160°SSE
Pressure: 30.21"   Gusts: NA
Location:  43.59°N, 98.44°W
Report Text: KMHE 181606Z AUTO 16010KT 9SM M05/M07 A3021 RMK AO2 T10501072 PWINO FZRANO $
Loading
Personal Weather Stations






























Interactive Weather Map New forecast layout! Learn more

10-Day Weather Forecast

Advertisements
Track Severe Weather on mobile